Time;durP1;ratioP1;P1;durP2;ratioP2;P2;SDS_P1;SDS_P2;PMS_P1;PMS_P2;Temp;Humidity;BMP_temperature;BMP_pressure;BME280_temperature;BME280_humidity;BME280_pressure;Samples;Min_cycle;Max_cycle;Signal;HPM_P1;HPM_P2
2023/10/03 00:01:40;;;;;;;19.98;7.38;;;17.30;99.90;;;;;;4951247;28;20051;-62
2023/10/03 00:04:10;;;;;;;20.73;6.88;;;17.40;99.90;;;;;;4949807;29;20108;-62
2023/10/03 00:06:39;;;;;;;18.73;7.38;;;17.30;99.90;;;;;;4950219;29;20118;-62
2023/10/03 00:09:08;;;;;;;17.13;6.95;;;17.30;99.90;;;;;;4949713;29;20123;-63
2023/10/03 00:11:35;;;;;;;20.90;6.82;;;17.30;99.90;;;;;;4950047;29;20081;-62
2023/10/03 00:14:06;;;;;;;16.95;7.30;;;17.30;99.90;;;;;;4950233;29;20070;-62
2023/10/03 00:16:33;;;;;;;19.42;8.18;;;17.40;99.90;;;;;;4950009;28;20054;-63
2023/10/03 00:18:59;;;;;;;25.27;8.70;;;17.30;99.90;;;;;;4933764;29;20108;-62
2023/10/03 00:21:25;;;;;;;16.77;8.43;;;17.30;99.90;;;;;;4951070;28;20126;-63
2023/10/03 00:23:51;;;;;;;20.05;7.47;;;17.30;99.90;;;;;;4949294;28;20058;-61
2023/10/03 00:26:17;;;;;;;16.73;7.53;;;17.30;99.90;;;;;;4950582;28;20204;-62
2023/10/03 00:28:44;;;;;;;18.45;8.48;;;17.30;99.90;;;;;;4949698;29;20043;-64
2023/10/03 00:31:13;;;;;;;23.55;9.57;;;17.40;99.90;;;;;;4949374;29;20107;-64
2023/10/03 00:33:41;;;;;;;20.45;7.68;;;17.40;99.90;;;;;;4950060;29;20152;-62
2023/10/03 00:36:27;;;;;;;24.08;8.02;;;17.50;99.90;;;;;;4949654;29;20047;-64
2023/10/03 00:38:53;;;;;;;22.00;8.18;;;17.50;99.90;;;;;;4948468;28;20052;-64
2023/10/03 00:41:19;;;;;;;18.45;8.07;;;17.50;99.90;;;;;;4933524;29;20050;-62
2023/10/03 00:43:59;;;;;;;21.40;8.02;;;17.50;99.90;;;;;;4949651;29;20062;-65
2023/10/03 00:46:27;;;;;;;;;;;17.50;99.90;;;;;;4949982;29;20047;-64
2023/10/03 00:48:53;;;;;;;19.20;6.75;;;17.50;99.90;;;;;;4949567;29;19919;-65
2023/10/03 00:51:20;;;;;;;18.90;6.45;;;17.50;99.90;;;;;;4948913;29;20104;-63
2023/10/03 00:53:47;;;;;;;17.30;7.30;;;17.50;99.90;;;;;;4950259;28;20043;-63
2023/10/03 00:56:15;;;;;;;19.55;7.20;;;17.50;99.90;;;;;;4950692;28;20046;-65
2023/10/03 00:58:41;;;;;;;17.88;7.13;;;17.50;99.90;;;;;;4950140;28;20043;-64
2023/10/03 01:01:09;;;;;;;19.10;7.90;;;17.40;99.90;;;;;;4949306;29;20055;-66
2023/10/03 01:03:38;;;;;;;23.58;8.80;;;17.40;99.90;;;;;;4950608;28;20040;-64
2023/10/03 01:06:08;;;;;;;19.50;7.20;;;17.40;99.90;;;;;;4949596;28;20101;-62
2023/10/03 01:08:42;;;;;;;19.00;7.40;;;17.40;99.90;;;;;;4949226;29;20044;-63
2023/10/03 01:11:24;;;;;;;19.58;7.10;;;17.40;99.90;;;;;;4950528;28;20047;-64
2023/10/03 01:13:57;;;;;;;18.70;7.38;;;17.40;99.90;;;;;;4948752;28;20130;-63
2023/10/03 01:16:37;;;;;;;15.88;6.50;;;17.40;99.90;;;;;;4949339;29;20071;-65
2023/10/03 01:19:25;;;;;;;28.35;9.80;;;17.40;99.90;;;;;;4948148;29;20122;-65
2023/10/03 01:21:52;;;;;;;20.60;7.03;;;17.40;99.90;;;;;;4948670;29;20043;-61
2023/10/03 01:24:21;;;;;;;17.15;6.05;;;17.50;99.90;;;;;;4948964;29;20054;-62
2023/10/03 01:26:47;;;;;;;18.08;6.60;;;17.40;99.90;;;;;;4948373;28;20173;-64
2023/10/03 01:29:13;;;;;;;19.48;6.70;;;17.40;99.90;;;;;;4949197;29;20098;-66
2023/10/03 01:31:41;;;;;;;19.27;5.90;;;17.40;99.90;;;;;;4950240;28;20407;-63
2023/10/03 01:34:07;;;;;;;16.15;6.72;;;17.40;99.90;;;;;;4949609;28;20391;-62
2023/10/03 01:36:33;;;;;;;18.02;7.05;;;17.40;99.90;;;;;;4948799;29;20055;-64
2023/10/03 01:38:59;;;;;;;19.40;7.07;;;17.40;99.90;;;;;;4948748;29;20047;-64
2023/10/03 01:41:25;;;;;;;18.58;7.05;;;17.40;99.90;;;;;;4949307;28;20051;-63
2023/10/03 01:43:51;;;;;;;12.63;5.38;;;17.40;99.90;;;;;;4948655;28;20059;-62
2023/10/03 01:46:17;;;;;;;16.67;7.50;;;17.40;99.90;;;;;;4949800;28;20043;-62
2023/10/03 01:48:43;;;;;;;20.45;6.85;;;17.40;99.90;;;;;;4948294;29;20039;-65
2023/10/03 01:51:10;;;;;;;15.90;7.13;;;17.40;99.90;;;;;;4948967;28;20043;-61
2023/10/03 01:53:36;;;;;;;17.77;6.10;;;17.40;99.90;;;;;;4949668;28;20039;-65
2023/10/03 01:56:04;;;;;;;20.48;9.10;;;17.40;99.90;;;;;;4948274;29;20133;-64
2023/10/03 01:58:30;;;;;;;19.33;6.47;;;17.40;99.90;;;;;;4948370;29;20180;-62
2023/10/03 02:00:56;;;;;;;23.55;8.07;;;17.40;99.90;;;;;;4949014;28;20047;-63
2023/10/03 02:03:22;;;;;;;15.95;5.50;;;17.40;99.90;;;;;;4948408;29;20039;-62
2023/10/03 02:05:48;;;;;;;16.58;6.85;;;17.40;99.90;;;;;;4949600;28;20047;-63
2023/10/03 02:08:17;;;;;;;18.77;6.80;;;17.50;99.90;;;;;;4948242;28;20035;-63
2023/10/03 02:10:50;;;;;;;18.70;6.78;;;17.40;99.90;;;;;;4948212;29;20043;-62
2023/10/03 02:13:19;;;;;;;15.95;5.60;;;17.50;99.90;;;;;;4932636;29;20051;-64
2023/10/03 02:15:47;;;;;;;14.65;5.65;;;17.40;99.90;;;;;;4949158;28;20039;-62
2023/10/03 02:18:14;;;;;;;17.25;7.40;;;17.40;99.90;;;;;;4929449;28;20117;-62
2023/10/03 02:21:05;;;;;;;13.50;5.47;;;17.40;99.90;;;;;;4929111;29;20388;-63
2023/10/03 02:23:32;;;;;;;15.80;6.18;;;17.50;99.90;;;;;;4929280;29;20125;-64
2023/10/03 02:26:10;;;;;;;23.05;9.10;;;17.50;99.90;;;;;;4928931;29;20036;-65
2023/10/03 02:28:37;;;;;;;15.00;6.53;;;17.50;99.90;;;;;;4913398;29;20043;-62
2023/10/03 02:31:07;;;;;;;20.98;6.57;;;17.50;99.90;;;;;;4929781;29;20036;-63
2023/10/03 02:33:39;;;;;;;18.00;5.07;;;17.50;99.90;;;;;;4928973;29;20051;-62
2023/10/03 02:36:07;;;;;;;18.95;5.97;;;17.50;99.90;;;;;;4929737;29;20047;-61
2023/10/03 02:38:38;;;;;;;14.82;6.22;;;17.50;99.90;;;;;;4934272;29;20035;-61
2023/10/03 02:41:10;;;;;;;20.60;6.85;;;17.50;99.90;;;;;;4932230;29;20131;-63
2023/10/03 02:43:38;;;;;;;15.23;6.40;;;17.50;99.90;;;;;;4947470;29;20054;-62
2023/10/03 02:46:07;;;;;;;18.93;6.43;;;17.50;99.90;;;;;;4947739;29;20043;-61
2023/10/03 02:48:33;;;;;;;15.32;5.68;;;17.50;99.90;;;;;;4948200;29;20340;-60
2023/10/03 02:51:01;;;;;;;16.40;6.47;;;17.50;99.90;;;;;;4948583;28;20035;-61
2023/10/03 02:53:27;;;;;;;18.23;5.53;;;17.50;99.90;;;;;;4931929;29;20039;-62
2023/10/03 02:55:54;;;;;;;17.90;6.40;;;17.50;99.90;;;;;;4949057;28;20045;-62
2023/10/03 02:58:20;;;;;;;16.77;6.15;;;17.50;99.90;;;;;;4947465;29;20115;-66
2023/10/03 03:00:54;;;;;;;16.70;5.90;;;17.50;99.90;;;;;;4947968;29;20047;-61
2023/10/03 03:03:23;;;;;;;13.50;5.57;;;17.60;99.90;;;;;;4951501;28;20039;-63
2023/10/03 03:05:49;;;;;;;17.95;6.25;;;17.60;99.90;;;;;;4934543;29;20503;-62
2023/10/03 03:10:55;;;;;;;15.60;5.57;;;17.60;99.90;;;;;;4951068;29;20051;-61
2023/10/03 03:13:22;;;;;;;13.85;5.68;;;17.70;99.90;;;;;;4951064;29;20039;-64
2023/10/03 03:15:56;;;;;;;17.23;5.85;;;17.70;99.90;;;;;;4951087;29;20082;-61
2023/10/03 03:18:24;;;;;;;13.77;5.22;;;17.70;99.90;;;;;;4950365;29;20051;-64
2023/10/03 03:20:57;;;;;;;16.85;5.68;;;17.60;99.90;;;;;;4950746;29;20552;-61
2023/10/03 03:23:30;;;;;;;20.52;5.65;;;17.60;99.90;;;;;;4950829;29;20035;-64
2023/10/03 03:28:38;;;;;;;18.48;5.15;;;17.60;99.90;;;;;;4950921;29;20078;-62
2023/10/03 03:31:16;;;;;;;24.35;5.47;;;17.60;99.90;;;;;;4950700;29;20043;-63
2023/10/03 03:33:53;;;;;;;13.50;4.85;;;17.60;99.90;;;;;;4949965;29;20537;-64
2023/10/03 03:36:20;;;;;;;18.98;6.40;;;17.60;99.90;;;;;;4934773;29;20096;-61
2023/10/03 03:38:47;;;;;;;21.67;6.03;;;17.60;99.90;;;;;;4951762;28;20051;-61
2023/10/03 03:41:14;;;;;;;12.05;4.72;;;17.60;99.90;;;;;;4951270;28;20039;-62
2023/10/03 03:43:40;;;;;;;14.88;5.28;;;17.60;99.90;;;;;;4950264;29;20047;-61
2023/10/03 03:46:07;;;;;;;15.60;4.82;;;17.70;99.90;;;;;;4950929;28;20093;-62
2023/10/03 03:48:34;;;;;;;17.25;5.47;;;17.70;99.90;;;;;;4950241;29;20049;-62
2023/10/03 03:51:11;;;;;;;14.38;5.15;;;17.70;99.90;;;;;;4949948;29;20109;-60
2023/10/03 03:53:37;;;;;;;17.27;4.85;;;17.70;99.90;;;;;;4948603;29;20039;-61
2023/10/03 03:56:07;;;;;;;14.73;5.68;;;17.70;99.90;;;;;;4950591;29;20426;-61
2023/10/03 03:58:37;;;;;;;14.10;4.50;;;17.80;99.90;;;;;;4950442;29;20048;-61
2023/10/03 04:01:11;;;;;;;19.85;4.95;;;17.80;99.90;;;;;;4933692;28;20476;-61
2023/10/03 04:03:38;;;;;;;16.88;4.90;;;17.80;99.90;;;;;;4950062;29;20043;-61
2023/10/03 04:06:05;;;;;;;19.27;5.78;;;17.90;99.90;;;;;;4949939;29;20121;-61
2023/10/03 04:08:31;;;;;;;19.08;6.05;;;17.90;99.90;;;;;;4950790;28;20035;-61
2023/10/03 04:10:58;;;;;;;16.48;5.65;;;17.90;99.90;;;;;;4950051;28;20104;-61
2023/10/03 04:13:24;;;;;;;19.25;4.93;;;17.90;99.90;;;;;;4933493;29;20039;-60
2023/10/03 04:15:50;;;;;;;10.85;4.63;;;18.00;99.90;;;;;;4950392;28;20101;-61
2023/10/03 04:18:17;;;;;;;12.63;4.25;;;18.00;99.90;;;;;;4951392;28;20047;-61
2023/10/03 04:20:46;;;;;;;12.65;4.68;;;18.00;99.90;;;;;;4949970;29;20113;-60
2023/10/03 04:23:13;;;;;;;16.90;5.30;;;18.00;99.90;;;;;;4950696;28;20043;-61
2023/10/03 04:25:40;;;;;;;15.73;5.43;;;18.10;99.90;;;;;;4950990;28;20059;-60
2023/10/03 04:28:06;;;;;;;8.52;3.42;;;18.20;99.90;;;;;;4932266;29;20294;-61
2023/10/03 04:30:33;;;;;;;12.25;4.75;;;18.30;99.90;;;;;;4948584;28;20670;-62
2023/10/03 04:32:59;;;;;;;18.95;5.05;;;18.30;99.90;;;;;;4949836;28;20042;-61
2023/10/03 04:35:25;;;;;;;14.35;4.53;;;18.40;99.90;;;;;;4948447;29;20043;-61
2023/10/03 04:37:52;;;;;;;11.32;4.30;;;18.50;99.90;;;;;;4948559;29;20049;-63
2023/10/03 04:40:28;;;;;;;16.02;4.35;;;18.60;99.90;;;;;;4948479;29;20051;-61
2023/10/03 04:42:57;;;;;;;8.52;3.30;;;18.60;99.90;;;;;;4948920;28;20539;-61
2023/10/03 04:45:26;;;;;;;;;;;18.70;99.90;;;;;;4948246;29;20043;-61
2023/10/03 04:47:52;;;;;;;9.55;4.15;;;18.70;99.90;;;;;;4950527;28;19922;-61
2023/10/03 04:50:23;;;;;;;12.57;2.78;;;18.80;99.90;;;;;;4948323;29;20114;-61
2023/10/03 04:52:49;;;;;;;11.90;3.58;;;18.80;99.90;;;;;;4950119;28;20743;-61
2023/10/03 04:55:20;;;;;;;13.15;4.30;;;18.80;99.90;;;;;;4949021;29;20041;-62
2023/10/03 04:57:48;;;;;;;11.90;4.63;;;18.80;99.90;;;;;;4947805;29;20526;-62
2023/10/03 05:00:18;;;;;;;11.77;3.95;;;18.80;99.90;;;;;;4932018;28;20511;-61
2023/10/03 05:02:49;;;;;;;12.73;4.50;;;18.80;99.90;;;;;;4947014;29;20501;-62
2023/10/03 05:05:22;;;;;;;10.95;4.28;;;18.80;99.90;;;;;;4943483;28;20105;-61
2023/10/03 05:07:52;;;;;;;9.52;4.10;;;18.80;99.90;;;;;;4931296;29;20047;-62
2023/10/03 05:10:30;;;;;;;9.23;4.45;;;18.80;99.90;;;;;;4948767;28;20360;-61
2023/10/03 05:12:57;;;;;;;9.93;4.32;;;18.90;99.90;;;;;;4948331;29;20043;-61
2023/10/03 05:15:26;;;;;;;10.82;3.65;;;18.90;99.90;;;;;;4949451;28;20039;-61
2023/10/03 05:17:54;;;;;;;10.53;4.77;;;18.80;99.90;;;;;;4931804;29;20047;-61
2023/10/03 05:20:20;;;;;;;20.70;5.68;;;18.80;99.90;;;;;;4948434;29;20392;-63
2023/10/03 05:22:47;;;;;;;11.65;4.05;;;18.80;99.90;;;;;;4946215;28;20055;-62
2023/10/03 05:25:17;;;;;;;17.75;4.47;;;18.80;99.90;;;;;;4936858;28;20043;-61
2023/10/03 05:27:44;;;;;;;11.70;4.70;;;18.80;99.90;;;;;;4919859;28;20050;-62
2023/10/03 05:30:11;;;;;;;15.40;5.30;;;18.80;99.90;;;;;;4935101;28;20795;-62
2023/10/03 05:32:38;;;;;;;15.02;4.88;;;18.80;99.90;;;;;;4927063;28;20046;-62
2023/10/03 05:35:05;;;;;;;15.18;3.70;;;18.80;99.90;;;;;;4935840;28;20483;-62
2023/10/03 05:37:34;;;;;;;10.52;3.20;;;18.70;99.90;;;;;;4937446;28;20477;-62
2023/10/03 05:40:15;;;;;;;;;;;18.70;99.90;;;;;;4937420;28;20115;-62
2023/10/03 05:42:43;;;;;;;10.35;3.40;;;18.70;99.90;;;;;;4935235;28;20398;-61
2023/10/03 05:45:13;;;;;;;12.23;4.22;;;18.70;99.90;;;;;;4935406;28;20053;-61
2023/10/03 05:47:46;;;;;;;10.13;3.38;;;18.60;99.90;;;;;;4950647;28;20051;-62
2023/10/03 05:50:23;;;;;;;6.43;3.28;;;18.60;99.90;;;;;;4934944;28;20119;-62
2023/10/03 05:52:50;;;;;;;6.28;3.20;;;18.60;99.90;;;;;;4935526;28;20035;-61
2023/10/03 05:55:16;;;;;;;9.63;3.95;;;18.60;99.90;;;;;;4920043;28;20043;-62
2023/10/03 05:57:45;;;;;;;9.57;3.53;;;18.50;99.90;;;;;;4935624;28;20043;-61
2023/10/03 06:00:17;;;;;;;7.43;3.58;;;18.50;99.90;;;;;;4935033;28;20568;-61
2023/10/03 06:02:47;;;;;;;8.10;2.47;;;18.50;99.90;;;;;;4950111;28;20067;-61
2023/10/03 06:05:16;;;;;;;8.63;2.38;;;18.50;99.90;;;;;;4936963;28;20491;-61
2023/10/03 06:07:43;;;;;;;10.80;3.25;;;18.40;99.90;;;;;;4933242;28;20362;-61
2023/10/03 06:10:15;;;;;;;7.10;2.33;;;18.40;99.90;;;;;;4935312;28;20177;-61
2023/10/03 06:12:41;;;;;;;9.00;3.08;;;18.40;99.90;;;;;;4943321;28;20036;-61
2023/10/03 06:15:07;;;;;;;5.70;2.60;;;18.40;99.90;;;;;;4935129;28;20050;-61
2023/10/03 06:17:34;;;;;;;7.90;1.70;;;18.30;99.90;;;;;;4934321;28;20036;-62
2023/10/03 06:20:00;;;;;;;7.10;2.20;;;18.40;99.90;;;;;;4935461;28;20130;-62
2023/10/03 06:22:26;;;;;;;8.05;2.03;;;18.40;99.90;;;;;;4936270;28;20522;-61
2023/10/03 06:24:57;;;;;;;6.40;1.92;;;18.30;99.90;;;;;;4936919;28;20431;-61
2023/10/03 06:27:29;;;;;;;6.53;1.70;;;18.30;99.90;;;;;;4934912;28;20051;-61
2023/10/03 06:29:55;;;;;;;4.45;2.33;;;18.30;99.90;;;;;;4927515;28;20046;-62
2023/10/03 06:32:21;;;;;;;6.32;1.45;;;18.30;99.90;;;;;;4935330;28;20395;-62
2023/10/03 06:34:47;;;;;;;6.30;1.45;;;18.20;99.90;;;;;;4933654;28;20503;-61
2023/10/03 06:37:12;;;;;;;5.15;1.60;;;18.20;99.90;;;;;;4928163;28;20040;-62
2023/10/03 06:39:39;;;;;;;3.38;1.67;;;18.20;99.90;;;;;;4939992;28;20046;-61
2023/10/03 06:42:09;;;;;;;3.85;1.85;;;18.20;99.90;;;;;;4938708;28;20565;-61
2023/10/03 06:44:37;;;;;;;5.20;1.35;;;18.20;99.90;;;;;;4939424;28;20078;-61
2023/10/03 06:47:04;;;;;;;4.30;1.40;;;18.20;99.90;;;;;;4938750;28;20039;-61
2023/10/03 06:49:31;;;;;;;4.97;1.98;;;18.20;99.90;;;;;;4938285;28;20155;-61
2023/10/03 06:51:57;;;;;;;3.10;1.48;;;18.10;99.90;;;;;;4939874;28;20048;-61
2023/10/03 06:54:26;;;;;;;4.90;1.48;;;18.10;99.90;;;;;;4937927;28;20046;-61
2023/10/03 06:56:51;;;;;;;3.63;1.45;;;18.20;99.90;;;;;;4938090;28;20054;-61
2023/10/03 06:59:17;;;;;;;5.78;1.17;;;18.10;99.90;;;;;;4940570;28;20399;-61
2023/10/03 07:01:43;;;;;;;6.05;1.35;;;18.10;99.90;;;;;;4937651;28;20101;-61
2023/10/03 07:04:09;;;;;;;6.35;1.67;;;18.10;99.90;;;;;;4938908;28;20071;-61
2023/10/03 07:06:35;;;;;;;3.38;1.02;;;18.10;99.90;;;;;;4939264;28;20053;-61
2023/10/03 07:09:07;;;;;;;5.80;1.77;;;18.10;99.90;;;;;;4937775;28;20131;-61
2023/10/03 07:11:34;;;;;;;3.97;1.60;;;18.10;99.90;;;;;;4938906;28;20074;-61
2023/10/03 07:14:00;;;;;;;3.03;1.20;;;18.00;99.90;;;;;;4938578;28;20050;-61
2023/10/03 07:16:27;;;;;;;5.22;1.48;;;17.90;99.90;;;;;;4938696;28;20101;-61
2023/10/03 07:18:53;;;;;;;6.65;1.77;;;17.90;99.90;;;;;;4939177;28;20508;-63
2023/10/03 07:21:19;;;;;;;7.97;2.00;;;17.80;99.90;;;;;;4939605;28;20082;-63
2023/10/03 07:23:45;;;;;;;8.27;1.92;;;17.80;99.90;;;;;;4936217;28;20039;-62
2023/10/03 07:26:11;;;;;;;6.47;1.58;;;17.70;99.90;;;;;;4939333;28;20040;-63
2023/10/03 07:28:38;;;;;;;6.03;1.73;;;17.60;99.90;;;;;;4938565;28;20046;-63
2023/10/03 07:31:13;;;;;;;5.78;1.63;;;17.50;99.90;;;;;;4938831;28;20043;-63
2023/10/03 07:33:47;;;;;;;6.90;1.23;;;17.50;99.90;;;;;;4938675;28;20847;-62
2023/10/03 07:36:17;;;;;;;3.47;1.23;;;17.40;99.90;;;;;;4937534;28;20075;-64
2023/10/03 07:38:42;;;;;;;3.33;0.93;;;17.20;99.90;;;;;;4938140;28;20093;-63
2023/10/03 07:41:09;;;;;;;4.68;0.93;;;17.10;99.90;;;;;;4937354;28;20047;-63
2023/10/03 07:43:35;;;;;;;5.43;1.38;;;17.00;99.90;;;;;;4937705;28;20048;-62
2023/10/03 07:46:01;;;;;;;3.55;1.35;;;17.00;99.90;;;;;;4938492;28;20050;-64
2023/10/03 07:48:29;;;;;;;5.03;1.42;;;16.90;99.90;;;;;;4944598;28;20040;-62
2023/10/03 07:50:55;;;;;;;2.70;0.70;;;17.00;99.90;;;;;;4944200;28;20051;-62
2023/10/03 07:53:32;;;;;;;3.80;0.85;;;17.00;99.90;;;;;;4928254;28;20048;-63
2023/10/03 07:55:59;;;;;;;5.10;1.13;;;17.00;99.90;;;;;;4938827;28;20099;-62
2023/10/03 07:58:32;;;;;;;3.15;1.30;;;16.90;99.90;;;;;;4936522;28;20047;-62
2023/10/03 08:00:58;;;;;;;1.55;0.80;;;16.90;99.90;;;;;;4939095;28;20070;-62
2023/10/03 08:03:28;;;;;;;1.25;0.85;;;16.80;99.90;;;;;;4938482;28;20039;-63
2023/10/03 08:05:57;;;;;;;5.93;0.55;;;16.80;99.90;;;;;;4936416;28;20134;-62
2023/10/03 08:08:25;;;;;;;2.58;0.65;;;16.80;99.90;;;;;;4922085;28;20049;-62
2023/10/03 08:10:51;;;;;;;2.80;0.43;;;16.80;99.90;;;;;;4938651;28;20035;-61
2023/10/03 08:13:17;;;;;;;5.25;0.50;;;16.90;99.90;;;;;;4936598;28;20056;-62
2023/10/03 08:15:43;;;;;;;0.95;0.20;;;17.00;99.90;;;;;;4937452;28;20488;-61
2023/10/03 08:18:17;;;;;;;2.28;0.52;;;16.90;99.90;;;;;;4938521;28;20070;-62
2023/10/03 08:20:44;;;;;;;1.55;0.50;;;16.90;99.90;;;;;;4937231;28;20047;-61
2023/10/03 08:23:10;;;;;;;3.38;0.70;;;16.80;99.90;;;;;;4938587;28;20526;-61
2023/10/03 08:25:35;;;;;;;1.25;0.40;;;16.80;99.90;;;;;;4938443;28;20039;-61
2023/10/03 08:28:08;;;;;;;1.25;0.20;;;16.80;99.90;;;;;;4938075;28;20104;-61
2023/10/03 08:30:35;;;;;;;0.82;0.20;;;16.80;99.90;;;;;;4936959;28;20044;-61
2023/10/03 08:33:05;;;;;;;1.08;0.40;;;16.80;99.90;;;;;;4937059;28;20043;-61
2023/10/03 08:35:34;;;;;;;1.55;0.57;;;16.80;99.90;;;;;;4937187;28;20046;-61
2023/10/03 08:38:07;;;;;;;1.80;0.38;;;16.70;99.90;;;;;;4936430;28;20050;-64
2023/10/03 08:40:38;;;;;;;1.08;0.45;;;16.70;99.90;;;;;;4943839;28;20047;-61
2023/10/03 08:43:08;;;;;;;0.20;0.10;;;16.60;99.90;;;;;;4936302;28;20052;-61
2023/10/03 08:45:41;;;;;;;2.92;0.80;;;16.60;99.90;;;;;;4936070;28;20062;-63
2023/10/03 08:48:08;;;;;;;0.08;0.08;;;16.50;99.90;;;;;;4936037;28;20055;-63
2023/10/03 08:50:40;;;;;;;0.32;0.28;;;16.40;99.90;;;;;;4936235;28;20062;-61
2023/10/03 08:53:13;;;;;;;2.75;0.20;;;16.30;99.90;;;;;;4951916;28;20036;-62
2023/10/03 08:55:39;;;;;;;1.30;0.10;;;16.20;99.90;;;;;;4937672;28;20371;-62
2023/10/03 08:58:08;;;;;;;1.85;0.10;;;16.10;99.90;;;;;;4936777;28;20040;-61
2023/10/03 09:00:40;;;;;;;0.43;0.20;;;16.10;99.90;;;;;;4936875;28;20434;-61
2023/10/03 09:03:14;;;;;;;0.88;0.32;;;16.00;99.90;;;;;;4934654;28;20110;-60
2023/10/03 09:05:42;;;;;;;0.30;0.10;;;15.90;99.90;;;;;;4936904;28;20039;-61
2023/10/03 09:08:09;;;;;;;0.10;0.10;;;15.90;99.90;;;;;;4936867;28;20109;-61
2023/10/03 09:10:51;;;;;;;0.65;0.20;;;15.90;99.90;;;;;;4934564;28;20032;-61
2023/10/03 09:13:23;;;;;;;0.60;0.30;;;16.00;99.90;;;;;;4944038;28;20052;-60
2023/10/03 09:15:59;;;;;;;0.35;0.05;;;16.10;99.90;;;;;;4936159;28;20070;-61
2023/10/03 09:18:30;;;;;;;0.52;0.28;;;16.10;99.90;;;;;;4936691;28;20113;-61
2023/10/03 09:20:59;;;;;;;2.38;0.28;;;16.10;99.90;;;;;;4936828;28;20051;-61
2023/10/03 09:23:37;;;;;;;0.10;0.10;;;16.10;99.90;;;;;;4936632;28;20106;-60
2023/10/03 09:26:06;;;;;;;3.42;0.10;;;16.10;99.90;;;;;;4936560;28;20054;-60
2023/10/03 09:28:36;;;;;;;0.88;0.20;;;16.10;99.90;;;;;;4920281;28;20039;-60
2023/10/03 09:31:08;;;;;;;0.20;0.10;;;16.00;99.90;;;;;;4937268;28;20036;-61
2023/10/03 09:33:40;;;;;;;2.05;0.75;;;16.00;99.90;;;;;;4936097;28;20047;-60
2023/10/03 09:36:08;;;;;;;1.13;0.20;;;16.00;99.90;;;;;;4935888;28;20047;-60
2023/10/03 09:38:47;;;;;;;0.20;0.13;;;16.00;99.90;;;;;;4936499;28;20096;-60
2023/10/03 09:41:17;;;;;;;1.23;0.60;;;16.10;99.90;;;;;;4936034;28;21987;-60
2023/10/03 09:43:49;;;;;;;0.55;0.20;;;16.10;99.90;;;;;;4935260;28;20044;-60
2023/10/03 09:46:23;;;;;;;0.45;0.10;;;16.00;99.90;;;;;;4936139;28;20051;-60
2023/10/03 09:48:53;;;;;;;0.17;0.13;;;16.00;99.90;;;;;;4937337;28;20043;-60
2023/10/03 09:54:35;;;;;;;0.22;0.20;;;15.90;99.90;;;;;;4923600;28;20105;-60
2023/10/03 09:57:01;;;;;;;0.10;0.10;;;15.90;99.90;;;;;;4936818;28;20107;-60
2023/10/03 09:59:32;;;;;;;1.15;0.10;;;15.90;99.90;;;;;;4936840;28;20039;-60
2023/10/03 10:01:59;;;;;;;0.10;0.10;;;15.90;99.90;;;;;;4934836;28;20054;-60
2023/10/03 10:04:30;;;;;;;1.67;0.10;;;15.80;99.90;;;;;;4933834;28;20059;-60
2023/10/03 10:07:29;;;;;;;1.55;0.20;;;15.90;99.90;;;;;;4935589;28;20054;-60
2023/10/03 10:10:14;;;;;;;0.77;0.33;;;15.80;99.90;;;;;;4937146;28;20083;-61
2023/10/03 10:13:12;;;;;;;0.98;0.35;;;15.70;99.90;;;;;;4934712;28;20290;-60
2023/10/03 10:16:13;;;;;;;0.57;0.25;;;15.70;99.90;;;;;;4938266;28;20031;-61
2023/10/03 10:18:45;;;;;;;0.68;0.25;;;15.60;99.90;;;;;;4934615;28;20067;-60
2023/10/03 10:21:20;;;;;;;1.30;0.43;;;15.50;99.90;;;;;;4937046;28;20039;-60
2023/10/03 10:26:39;;;;;;;0.45;0.30;;;15.40;99.90;;;;;;4942318;28;20055;-60
2023/10/03 10:29:08;;;;;;;2.13;0.50;;;15.30;99.90;;;;;;4936124;28;20087;-60
2023/10/03 10:31:44;;;;;;;0.50;0.30;;;15.40;99.90;;;;;;4936286;28;20054;-60
2023/10/03 10:34:20;;;;;;;2.55;0.70;;;15.40;99.90;;;;;;4936128;28;20048;-60
2023/10/03 10:37:03;;;;;;;0.90;0.28;;;15.40;99.90;;;;;;4936872;28;20098;-60
2023/10/03 10:39:53;;;;;;;4.00;0.75;;;15.50;99.90;;;;;;4936363;28;20047;-60
2023/10/03 10:42:24;;;;;;;1.00;0.20;;;15.70;99.90;;;;;;4936172;28;20061;-60
2023/10/03 10:45:15;;;;;;;1.15;0.25;;;15.80;99.90;;;;;;4935777;28;20163;-60
2023/10/03 10:47:49;;;;;;;2.13;0.20;;;16.00;99.90;;;;;;4933827;28;20105;-60
2023/10/03 10:50:17;;;;;;;0.43;0.10;;;16.10;99.90;;;;;;4935116;28;20047;-60
2023/10/03 10:52:52;;;;;;;0.77;0.10;;;16.10;99.90;;;;;;4935630;28;20504;-63
2023/10/03 10:55:18;;;;;;;0.43;0.22;;;16.00;99.90;;;;;;4935739;28;20117;-60
2023/10/03 10:57:44;;;;;;;1.77;0.47;;;15.90;99.90;;;;;;4918700;28;20051;-60
2023/10/03 11:00:22;;;;;;;1.38;0.40;;;15.70;99.90;;;;;;4933313;28;20040;-61
2023/10/03 11:02:48;;;;;;;1.92;0.77;;;15.60;99.90;;;;;;4935497;28;20042;-60
2023/10/03 11:05:14;;;;;;;1.15;0.45;;;15.50;99.90;;;;;;4934503;28;20047;-60
2023/10/03 11:07:53;;;;;;;3.55;0.30;;;15.40;99.90;;;;;;4947952;28;20116;-61
2023/10/03 11:10:21;;;;;;;1.52;0.47;;;15.40;99.90;;;;;;4933729;28;20494;-61
2023/10/03 11:13:03;;;;;;;3.15;0.80;;;15.30;99.90;;;;;;4934579;28;20043;-61
2023/10/03 11:15:30;;;;;;;2.25;1.10;;;15.30;99.90;;;;;;4934796;28;20040;-60
2023/10/03 11:17:58;;;;;;;2.58;0.98;;;15.20;99.90;;;;;;4934180;28;20047;-61
2023/10/03 11:20:25;;;;;;;4.90;0.80;;;15.20;99.90;;;;;;4935171;28;20044;-60
2023/10/03 11:22:51;;;;;;;3.42;0.95;;;15.10;99.90;;;;;;4934469;28;20083;-60
2023/10/03 11:25:19;;;;;;;2.53;0.95;;;15.10;99.90;;;;;;4938178;28;20071;-60
2023/10/03 11:27:46;;;;;;;1.15;0.50;;;15.10;99.90;;;;;;4938033;28;20039;-60
2023/10/03 11:30:15;;;;;;;2.08;0.80;;;15.10;99.90;;;;;;4937862;28;20579;-61
2023/10/03 11:32:41;;;;;;;4.05;0.60;;;15.10;99.90;;;;;;4939934;28;20039;-60
2023/10/03 11:35:19;;;;;;;2.83;0.80;;;15.10;99.90;;;;;;4938671;28;20762;-61
2023/10/03 11:37:46;;;;;;;1.88;0.93;;;15.20;99.90;;;;;;4938330;28;20488;-61
2023/10/03 11:40:16;;;;;;;1.80;0.60;;;15.30;99.90;;;;;;4939105;28;20122;-61
2023/10/03 11:42:50;;;;;;;1.95;0.65;;;15.40;99.90;;;;;;4921498;28;20051;-61
2023/10/03 11:45:22;;;;;;;1.88;0.57;;;15.50;99.90;;;;;;4937910;28;20223;-61
2023/10/03 11:48:06;;;;;;;4.07;1.13;;;15.50;99.90;;;;;;4943971;28;20058;-60
2023/10/03 11:50:38;;;;;;;2.95;0.57;;;15.50;99.90;;;;;;4937102;28;20039;-61
2023/10/03 11:53:05;;;;;;;1.35;0.57;;;15.50;99.90;;;;;;4938032;28;20082;-61
2023/10/03 11:55:36;;;;;;;6.28;0.80;;;15.50;99.90;;;;;;4929594;28;20506;-60
2023/10/03 11:58:03;;;;;;;5.22;1.25;;;15.50;99.90;;;;;;4937222;28;20054;-60
2023/10/03 12:00:29;;;;;;;1.35;0.70;;;15.40;99.90;;;;;;4938472;28;20032;-60
2023/10/03 12:02:55;;;;;;;1.70;0.73;;;15.50;99.90;;;;;;4937205;28;20487;-60
2023/10/03 12:05:23;;;;;;;2.35;0.90;;;15.50;99.90;;;;;;4937861;28;20375;-61
2023/10/03 12:07:50;;;;;;;2.65;0.52;;;15.60;99.90;;;;;;4938955;28;20035;-60
2023/10/03 12:10:20;;;;;;;4.47;1.10;;;15.60;99.90;;;;;;4936631;28;20065;-61
2023/10/03 12:12:46;;;;;;;;;;;15.70;99.90;;;;;;4938509;28;20048;-60
2023/10/03 12:15:13;;;;;;;1.40;0.88;;;15.70;99.90;;;;;;4938829;28;19922;-61
2023/10/03 12:17:46;;;;;;;1.05;0.30;;;15.70;99.90;;;;;;4944845;28;20068;-60
2023/10/03 12:20:13;;;;;;;4.03;0.90;;;15.60;99.90;;;;;;4937192;28;20135;-60
2023/10/03 12:22:41;;;;;;;2.10;0.82;;;15.70;99.90;;;;;;4936904;28;20443;-61
2023/10/03 12:25:18;;;;;;;3.25;0.43;;;15.60;99.90;;;;;;4937281;28;20071;-60
2023/10/03 12:27:44;;;;;;;2.28;0.50;;;15.60;99.90;;;;;;4935943;28;20090;-60
2023/10/03 12:30:16;;;;;;;1.90;0.85;;;15.60;99.90;;;;;;4936630;28;20475;-61
2023/10/03 12:32:50;;;;;;;0.90;0.50;;;15.50;99.90;;;;;;4936801;28;20075;-60
2023/10/03 12:35:16;;;;;;;4.30;0.55;;;15.50;99.90;;;;;;4936769;28;20027;-60
2023/10/03 12:37:44;;;;;;;3.05;0.50;;;15.50;99.90;;;;;;4937562;28;20047;-61
2023/10/03 12:40:15;;;;;;;1.33;0.80;;;15.50;99.90;;;;;;4937410;28;20492;-61
2023/10/03 12:42:43;;;;;;;1.98;0.68;;;15.50;99.90;;;;;;4936745;28;20051;-61
2023/10/03 12:45:15;;;;;;;3.97;1.10;;;15.50;99.90;;;;;;4938143;28;20046;-60
2023/10/03 12:47:47;;;;;;;5.93;0.77;;;15.40;99.90;;;;;;4937369;28;20047;-60
2023/10/03 12:50:20;;;;;;;1.75;0.88;;;15.40;99.90;;;;;;4936016;28;20506;-60
2023/10/03 12:52:48;;;;;;;1.73;0.50;;;15.40;99.90;;;;;;4934720;28;20044;-60
2023/10/03 12:55:15;;;;;;;1.83;0.68;;;15.30;99.90;;;;;;4936978;28;20035;-60
2023/10/03 12:57:42;;;;;;;1.40;0.47;;;15.40;99.90;;;;;;4935968;28;20075;-60
2023/10/03 13:00:08;;;;;;;4.05;1.17;;;15.40;99.90;;;;;;4937640;28;20454;-60
2023/10/03 13:02:35;;;;;;;1.90;0.50;;;15.50;99.90;;;;;;4936714;28;20062;-60
2023/10/03 13:05:05;;;;;;;8.48;0.80;;;15.50;99.90;;;;;;4943875;28;20062;-60
2023/10/03 13:07:35;;;;;;;5.07;0.90;;;15.70;99.90;;;;;;4925041;28;20499;-60